LTFJLGMT

Guest
Details From LTFJ - SABIHA GOKCEN
To LGMT - Mitilini
Flight Number -
Tags generated
Created
Modified
Stats Distance 167 nm / 310 km
Max Altitude 16,300 ft / 4,968 m
Waypoints 3
Social Downloads 0
Likes 0
Share VATSIM

Download

Looking for another format? Having issues loading an existing format? Contact us
Advertisement - Login to hide

Notes

Basic altitude profile: - Ascent Rate: 2500ft/min - Ascent Speed: 250kts - Cruise Altitude: 35000ft - Cruise Speed: 420kts - Descent Rate: 1500ft/min - Descent Speed: 250kts Options: - Use NATs: yes - Use PACOTS: yes - Use low airways: yes - Use high airways: yes

Route

LTFJ YAYLA LGMT

ID Type Via Altitude Latitude Longitude Leg Dist Tot Dist Heading (true) Name
O LTFJ APT - 0 ft / 0 m 40.89855˚ 29.30922˚ - 0 nm - SABIHA GOKCEN
YAYLA FIX - 16,300 ft / 4,968 m 39.86556˚ 27.99528˚ 86 nm 86 nm 225° / 224° -
O LGMT APT - 0 ft / 0 m 39.06583˚ 26.59194˚ 80 nm 167 nm 234° / 233° Mitilini

Altitude Profile

Advertisement - Login to hide

Weather


0- 5 10 15 20 25 30 35+ Temperature / ° C

Clouds and Precipitation
Forecast for 2017-12-18 12:00 UTC. Updated 2 hours ago

Ground ~20,000 ft ~40,000 ft Winds

LTFJ

Details ICAO LTFJ (SAW)
Name SABIHA GOKCEN
Region Turkey
Timezone Europe/Istanbul (UTC+3.0)
Stats Elevation 312 ft / 95 m (AMSL)
Location 40.898552° 29.309221°
Runways 1
Magnetic Variation 5.475° E

METAR

LTFJ 181250Z 03012KT 9999 SCT013 BKN030 08/04 Q1017 NOSIG

Decode

TAF

Not found

Departure Runways

ID Width Length Bearing (true) Bearing (mag) Surface Threshold Offset Overrun Length
06 148 ft / 45 m 9,690 ft / 2,953 m 64.01° 58.54° Concrete 0 ft / 0 m 197 ft / 60 m
24 148 ft / 45 m 9,690 ft / 2,953 m 244.03° 238.56° Concrete 0 ft / 0 m 197 ft / 60 m

LGMT

Details ICAO LGMT (MJT)
Name Mitilini
Region Greece
Timezone Europe/Athens (UTC+2.0)
Stats Elevation 60 ft / 18 m (AMSL)
Location 39.065833° 26.591943°
Runways 1
Magnetic Variation 4.923° E

METAR

LGMT 181250Z VRB03KT 9999 FEW018TCU SCT020 15/10 Q1014

Decode

TAF

Not found

Destination Runways

ID Width Length Bearing (true) Bearing (mag) Surface Threshold Offset Overrun Length
14 148 ft / 45 m 7,899 ft / 2,408 m 147.79° 142.87° Asphalt 269 ft / 82 m 200 ft / 61 m
32 148 ft / 45 m 7,899 ft / 2,408 m 327.80° 322.88° Asphalt 1,755 ft / 535 m 165 ft / 50 m